sensor_id;sensor_type;location;lat;lon;timestamp;temperature;humidity
12911;DHT22;6523;49.758;6.120;2024-03-23T00:55:34;9.00;99.90
12911;DHT22;6523;49.758;6.120;2024-03-23T00:58:00;9.10;99.90
12911;DHT22;6523;49.758;6.120;2024-03-23T01:00:25;9.20;99.90
12911;DHT22;6523;49.758;6.120;2024-03-23T01:02:51;9.20;99.90
12911;DHT22;6523;49.758;6.120;2024-03-23T01:05:17;9.30;99.90
12911;DHT22;6523;49.758;6.120;2024-03-23T01:07:42;9.30;99.90
12911;DHT22;6523;49.758;6.120;2024-03-23T01:10:08;9.30;99.90
12911;DHT22;6523;49.758;6.120;2024-03-23T01:12:34;9.30;99.90
12911;DHT22;6523;49.758;6.120;2024-03-23T01:14:59;9.30;99.90
12911;DHT22;6523;49.758;6.120;2024-03-23T01:17:25;9.30;99.90
12911;DHT22;6523;49.758;6.120;2024-03-23T01:19:51;9.20;99.90
12911;DHT22;6523;49.758;6.120;2024-03-23T01:22:16;9.30;99.90
12911;DHT22;6523;49.758;6.120;2024-03-23T01:24:42;9.30;99.90
12911;DHT22;6523;49.758;6.120;2024-03-23T01:27:08;9.20;99.90
12911;DHT22;6523;49.758;6.120;2024-03-23T01:29:34;9.20;99.90
12911;DHT22;6523;49.758;6.120;2024-03-23T01:32:00;9.20;99.90
12911;DHT22;6523;49.758;6.120;2024-03-23T01:34:25;9.20;99.90
12911;DHT22;6523;49.758;6.120;2024-03-23T01:36:52;9.10;99.90
12911;DHT22;6523;49.758;6.120;2024-03-23T01:39:17;8.90;99.90
12911;DHT22;6523;49.758;6.120;2024-03-23T01:41:43;8.80;99.90
12911;DHT22;6523;49.758;6.120;2024-03-23T01:44:09;8.70;99.90
12911;DHT22;6523;49.758;6.120;2024-03-23T01:46:38;8.60;99.90
12911;DHT22;6523;49.758;6.120;2024-03-23T01:49:07;8.40;99.90
12911;DHT22;6523;49.758;6.120;2024-03-23T01:51:34;8.30;99.90
12911;DHT22;6523;49.758;6.120;2024-03-23T01:54:01;8.20;99.90
12911;DHT22;6523;49.758;6.120;2024-03-23T01:56:32;8.00;99.90
12911;DHT22;6523;49.758;6.120;2024-03-23T01:59:04;7.90;99.90
12911;DHT22;6523;49.758;6.120;2024-03-23T02:01:31;7.80;99.90
12911;DHT22;6523;49.758;6.120;2024-03-23T02:03:57;7.70;99.90
12911;DHT22;6523;49.758;6.120;2024-03-23T02:06:24;7.70;99.90
12911;DHT22;6523;49.758;6.120;2024-03-23T02:08:50;7.90;99.90
12911;DHT22;6523;49.758;6.120;2024-03-23T02:11:16;7.70;99.90
12911;DHT22;6523;49.758;6.120;2024-03-23T02:13:42;7.70;99.90
12911;DHT22;6523;49.758;6.120;2024-03-23T02:16:08;7.80;99.90
12911;DHT22;6523;49.758;6.120;2024-03-23T02:18:34;7.60;99.90
12911;DHT22;6523;49.758;6.120;2024-03-23T02:21:00;7.60;99.90
12911;DHT22;6523;49.758;6.120;2024-03-23T02:23:25;7.60;99.90
12911;DHT22;6523;49.758;6.120;2024-03-23T02:25:51;7.70;99.90
12911;DHT22;6523;49.758;6.120;2024-03-23T02:28:18;7.60;99.90
12911;DHT22;6523;49.758;6.120;2024-03-23T02:30:44;7.60;99.90
12911;DHT22;6523;49.758;6.120;2024-03-23T02:33:10;7.50;99.90
12911;DHT22;6523;49.758;6.120;2024-03-23T02:35:35;7.50;99.90
12911;DHT22;6523;49.758;6.120;2024-03-23T02:38:01;7.40;99.90
12911;DHT22;6523;49.758;6.120;2024-03-23T02:40:28;7.40;99.90
12911;DHT22;6523;49.758;6.120;2024-03-23T02:42:53;7.30;99.90
12911;DHT22;6523;49.758;6.120;2024-03-23T02:45:19;7.30;99.90
12911;DHT22;6523;49.758;6.120;2024-03-23T02:47:45;7.30;99.90
12911;DHT22;6523;49.758;6.120;2024-03-23T02:50:10;7.30;99.90
12911;DHT22;6523;49.758;6.120;2024-03-23T02:52:36;7.30;99.90
12911;DHT22;6523;49.758;6.120;2024-03-23T02:55:03;7.20;99.90
12911;DHT22;6523;49.758;6.120;2024-03-23T02:57:28;7.20;99.90
12911;DHT22;6523;49.758;6.120;2024-03-23T02:59:54;7.20;99.90
12911;DHT22;6523;49.758;6.120;2024-03-23T03:02:20;7.20;99.90
12911;DHT22;6523;49.758;6.120;2024-03-23T03:04:46;7.20;99.90
12911;DHT22;6523;49.758;6.120;2024-03-23T03:07:12;7.20;99.90
12911;DHT22;6523;49.758;6.120;2024-03-23T03:09:38;7.20;99.90
12911;DHT22;6523;49.758;6.120;2024-03-23T03:12:08;7.10;99.90
12911;DHT22;6523;49.758;6.120;2024-03-23T03:14:34;7.10;99.90
12911;DHT22;6523;49.758;6.120;2024-03-23T03:17:00;7.20;99.90
12911;DHT22;6523;49.758;6.120;2024-03-23T03:19:25;7.20;99.90
12911;DHT22;6523;49.758;6.120;2024-03-23T03:21:51;7.10;99.90
12911;DHT22;6523;49.758;6.120;2024-03-23T03:24:17;7.00;99.90
12911;DHT22;6523;49.758;6.120;2024-03-23T03:26:43;7.10;99.90
12911;DHT22;6523;49.758;6.120;2024-03-23T03:29:09;7.00;99.90
12911;DHT22;6523;49.758;6.120;2024-03-23T03:31:34;7.00;99.90
12911;DHT22;6523;49.758;6.120;2024-03-23T03:34:00;7.00;99.90
12911;DHT22;6523;49.758;6.120;2024-03-23T03:36:26;6.90;99.90
12911;DHT22;6523;49.758;6.120;2024-03-23T03:38:51;6.70;99.90
12911;DHT22;6523;49.758;6.120;2024-03-23T03:41:18;6.70;99.90
12911;DHT22;6523;49.758;6.120;2024-03-23T03:43:44;6.60;99.90
12911;DHT22;6523;49.758;6.120;2024-03-23T03:46:09;6.60;99.90
12911;DHT22;6523;49.758;6.120;2024-03-23T03:48:36;6.50;99.90
12911;DHT22;6523;49.758;6.120;2024-03-23T03:51:02;6.40;99.90
12911;DHT22;6523;49.758;6.120;2024-03-23T03:53:28;6.20;99.90
12911;DHT22;6523;49.758;6.120;2024-03-23T03:55:54;6.10;99.90
12911;DHT22;6523;49.758;6.120;2024-03-23T03:58:19;6.10;99.90
12911;DHT22;6523;49.758;6.120;2024-03-23T04:00:45;6.00;99.90
12911;DHT22;6523;49.758;6.120;2024-03-23T04:03:10;6.00;99.90
12911;DHT22;6523;49.758;6.120;2024-03-23T04:05:36;6.00;99.90
12911;DHT22;6523;49.758;6.120;2024-03-23T04:08:02;6.00;99.90
12911;DHT22;6523;49.758;6.120;2024-03-23T04:10:27;5.90;99.90
12911;DHT22;6523;49.758;6.120;2024-03-23T04:12:53;5.80;99.90
12911;DHT22;6523;49.758;6.120;2024-03-23T04:15:19;5.90;99.90
12911;DHT22;6523;49.758;6.120;2024-03-23T04:17:45;5.90;99.90
12911;DHT22;6523;49.758;6.120;2024-03-23T04:20:11;5.80;99.90
12911;DHT22;6523;49.758;6.120;2024-03-23T04:22:39;5.80;99.90
12911;DHT22;6523;49.758;6.120;2024-03-23T04:25:05;5.90;99.90
12911;DHT22;6523;49.758;6.120;2024-03-23T04:27:35;5.80;99.90
12911;DHT22;6523;49.758;6.120;2024-03-23T04:30:00;5.80;99.90
12911;DHT22;6523;49.758;6.120;2024-03-23T04:32:27;5.80;99.90
12911;DHT22;6523;49.758;6.120;2024-03-23T04:34:53;5.90;99.90
12911;DHT22;6523;49.758;6.120;2024-03-23T04:37:20;5.80;99.90
12911;DHT22;6523;49.758;6.120;2024-03-23T04:39:46;5.80;99.90
12911;DHT22;6523;49.758;6.120;2024-03-23T04:42:11;5.80;99.90
12911;DHT22;6523;49.758;6.120;2024-03-23T04:44:37;5.80;99.90
12911;DHT22;6523;49.758;6.120;2024-03-23T04:47:03;5.70;99.90
12911;DHT22;6523;49.758;6.120;2024-03-23T04:49:29;5.70;99.90
12911;DHT22;6523;49.758;6.120;2024-03-23T04:51:54;5.70;99.90
12911;DHT22;6523;49.758;6.120;2024-03-23T04:54:20;5.60;99.90
12911;DHT22;6523;49.758;6.120;2024-03-23T04:56:46;5.70;99.90
12911;DHT22;6523;49.758;6.120;2024-03-23T04:59:11;5.50;99.90
12911;DHT22;6523;49.758;6.120;2024-03-23T05:01:37;5.50;99.90
12911;DHT22;6523;49.758;6.120;2024-03-23T05:04:05;5.40;99.90
12911;DHT22;6523;49.758;6.120;2024-03-23T05:06:31;5.30;99.90
12911;DHT22;6523;49.758;6.120;2024-03-23T05:08:57;5.30;99.90
12911;DHT22;6523;49.758;6.120;2024-03-23T05:11:22;5.20;99.90
12911;DHT22;6523;49.758;6.120;2024-03-23T05:13:48;5.20;99.90
12911;DHT22;6523;49.758;6.120;2024-03-23T05:16:14;5.20;99.90
12911;DHT22;6523;49.758;6.120;2024-03-23T05:18:39;5.20;99.90
12911;DHT22;6523;49.758;6.120;2024-03-23T05:21:05;5.20;99.90
12911;DHT22;6523;49.758;6.120;2024-03-23T05:23:30;5.10;99.90
12911;DHT22;6523;49.758;6.120;2024-03-23T05:25:56;5.10;99.90
12911;DHT22;6523;49.758;6.120;2024-03-23T05:28:22;5.00;99.90
12911;DHT22;6523;49.758;6.120;2024-03-23T05:30:52;5.00;99.90
12911;DHT22;6523;49.758;6.120;2024-03-23T05:33:19;5.00;99.90
12911;DHT22;6523;49.758;6.120;2024-03-23T05:35:45;4.90;99.90
12911;DHT22;6523;49.758;6.120;2024-03-23T05:38:11;4.90;99.90
12911;DHT22;6523;49.758;6.120;2024-03-23T05:40:36;4.80;99.90
12911;DHT22;6523;49.758;6.120;2024-03-23T05:43:06;4.80;99.90
12911;DHT22;6523;49.758;6.120;2024-03-23T05:45:32;4.70;99.90
12911;DHT22;6523;49.758;6.120;2024-03-23T05:47:58;4.70;99.90
12911;DHT22;6523;49.758;6.120;2024-03-23T05:50:24;4.70;99.90
12911;DHT22;6523;49.758;6.120;2024-03-23T05:52:50;4.80;99.90
12911;DHT22;6523;49.758;6.120;2024-03-23T05:55:15;4.70;99.90
12911;DHT22;6523;49.758;6.120;2024-03-23T05:57:41;4.80;99.90
12911;DHT22;6523;49.758;6.120;2024-03-23T06:00:07;4.90;99.90
12911;DHT22;6523;49.758;6.120;2024-03-23T06:02:41;5.00;99.90
12911;DHT22;6523;49.758;6.120;2024-03-23T06:05:07;5.00;99.90
12911;DHT22;6523;49.758;6.120;2024-03-23T06:07:33;5.10;99.90
12911;DHT22;6523;49.758;6.120;2024-03-23T06:09:59;5.20;99.90
12911;DHT22;6523;49.758;6.120;2024-03-23T06:12:24;5.20;99.90
12911;DHT22;6523;49.758;6.120;2024-03-23T06:14:50;5.20;99.90
12911;DHT22;6523;49.758;6.120;2024-03-23T06:17:15;5.20;99.90
12911;DHT22;6523;49.758;6.120;2024-03-23T06:19:41;5.20;99.90
12911;DHT22;6523;49.758;6.120;2024-03-23T06:22:07;5.30;99.90
12911;DHT22;6523;49.758;6.120;2024-03-23T06:24:32;5.40;99.90
12911;DHT22;6523;49.758;6.120;2024-03-23T06:26:58;5.40;99.90
12911;DHT22;6523;49.758;6.120;2024-03-23T06:29:23;5.50;99.90
12911;DHT22;6523;49.758;6.120;2024-03-23T06:31:56;5.50;99.90
12911;DHT22;6523;49.758;6.120;2024-03-23T06:34:21;5.50;99.90
12911;DHT22;6523;49.758;6.120;2024-03-23T06:36:48;5.60;99.90
12911;DHT22;6523;49.758;6.120;2024-03-23T06:39:15;5.70;99.90
12911;DHT22;6523;49.758;6.120;2024-03-23T06:41:42;5.70;99.90
12911;DHT22;6523;49.758;6.120;2024-03-23T06:44:08;5.80;99.90
12911;DHT22;6523;49.758;6.120;2024-03-23T06:46:34;5.80;99.90
12911;DHT22;6523;49.758;6.120;2024-03-23T06:48:59;5.80;99.90
12911;DHT22;6523;49.758;6.120;2024-03-23T06:51:25;5.80;99.90
12911;DHT22;6523;49.758;6.120;2024-03-23T06:53:51;5.90;99.90
12911;DHT22;6523;49.758;6.120;2024-03-23T06:56:16;5.90;99.90
12911;DHT22;6523;49.758;6.120;2024-03-23T06:58:42;5.90;99.90
12911;DHT22;6523;49.758;6.120;2024-03-23T07:01:07;5.80;99.90
12911;DHT22;6523;49.758;6.120;2024-03-23T07:03:33;5.80;99.90
12911;DHT22;6523;49.758;6.120;2024-03-23T07:05:59;5.70;99.90
12911;DHT22;6523;49.758;6.120;2024-03-23T07:08:24;5.70;99.90
12911;DHT22;6523;49.758;6.120;2024-03-23T07:10:50;5.70;99.90
12911;DHT22;6523;49.758;6.120;2024-03-23T07:13:15;5.80;99.90
12911;DHT22;6523;49.758;6.120;2024-03-23T07:15:42;5.80;99.90
12911;DHT22;6523;49.758;6.120;2024-03-23T07:18:08;5.90;99.90
12911;DHT22;6523;49.758;6.120;2024-03-23T07:20:34;5.90;99.90
12911;DHT22;6523;49.758;6.120;2024-03-23T07:23:00;5.90;99.90
12911;DHT22;6523;49.758;6.120;2024-03-23T07:25:25;6.00;99.90
12911;DHT22;6523;49.758;6.120;2024-03-23T07:27:53;6.10;99.90
12911;DHT22;6523;49.758;6.120;2024-03-23T07:30:19;6.10;99.90
12911;DHT22;6523;49.758;6.120;2024-03-23T07:32:45;6.20;99.90
12911;DHT22;6523;49.758;6.120;2024-03-23T07:35:10;6.30;99.90
12911;DHT22;6523;49.758;6.120;2024-03-23T07:37:36;6.40;99.90
12911;DHT22;6523;49.758;6.120;2024-03-23T07:40:02;6.50;99.90
12911;DHT22;6523;49.758;6.120;2024-03-23T07:42:28;6.50;99.90
12911;DHT22;6523;49.758;6.120;2024-03-23T07:44:54;6.50;99.90
12911;DHT22;6523;49.758;6.120;2024-03-23T07:47:22;6.50;99.90
12911;DHT22;6523;49.758;6.120;2024-03-23T07:49:48;6.70;99.90
12911;DHT22;6523;49.758;6.120;2024-03-23T07:52:14;6.80;99.90
12911;DHT22;6523;49.758;6.120;2024-03-23T07:54:40;7.00;99.90
12911;DHT22;6523;49.758;6.120;2024-03-23T07:57:05;7.00;99.90
12911;DHT22;6523;49.758;6.120;2024-03-23T07:59:32;7.10;99.90
12911;DHT22;6523;49.758;6.120;2024-03-23T08:01:59;7.10;99.90
12911;DHT22;6523;49.758;6.120;2024-03-23T08:04:26;7.00;99.90
12911;DHT22;6523;49.758;6.120;2024-03-23T08:06:52;7.00;99.90
12911;DHT22;6523;49.758;6.120;2024-03-23T08:09:17;7.00;99.90
12911;DHT22;6523;49.758;6.120;2024-03-23T08:11:44;6.80;99.90
12911;DHT22;6523;49.758;6.120;2024-03-23T08:14:11;7.00;99.90
12911;DHT22;6523;49.758;6.120;2024-03-23T08:16:36;7.20;99.90
12911;DHT22;6523;49.758;6.120;2024-03-23T08:19:02;7.30;99.90
12911;DHT22;6523;49.758;6.120;2024-03-23T08:21:29;7.30;99.90
12911;DHT22;6523;49.758;6.120;2024-03-23T08:23:55;7.30;99.90
12911;DHT22;6523;49.758;6.120;2024-03-23T08:26:20;7.20;99.90
12911;DHT22;6523;49.758;6.120;2024-03-23T08:28:46;7.00;99.90
12911;DHT22;6523;49.758;6.120;2024-03-23T08:31:13;6.90;99.90
12911;DHT22;6523;49.758;6.120;2024-03-23T08:33:42;6.90;99.90
12911;DHT22;6523;49.758;6.120;2024-03-23T08:36:10;7.00;99.90
12911;DHT22;6523;49.758;6.120;2024-03-23T08:38:42;7.00;99.90
12911;DHT22;6523;49.758;6.120;2024-03-23T08:41:09;7.20;99.90
12911;DHT22;6523;49.758;6.120;2024-03-23T08:43:39;7.40;99.90
12911;DHT22;6523;49.758;6.120;2024-03-23T08:46:10;7.40;99.90
12911;DHT22;6523;49.758;6.120;2024-03-23T08:48:40;7.60;99.90
12911;DHT22;6523;49.758;6.120;2024-03-23T08:51:09;7.50;99.90
12911;DHT22;6523;49.758;6.120;2024-03-23T08:53:36;7.40;99.90
12911;DHT22;6523;49.758;6.120;2024-03-23T08:56:02;7.40;99.90
12911;DHT22;6523;49.758;6.120;2024-03-23T08:58:29;7.60;99.90
12911;DHT22;6523;49.758;6.120;2024-03-23T09:01:09;7.50;99.90
12911;DHT22;6523;49.758;6.120;2024-03-23T09:03:35;7.70;99.90
12911;DHT22;6523;49.758;6.120;2024-03-23T09:06:06;8.00;99.90
12911;DHT22;6523;49.758;6.120;2024-03-23T09:08:31;7.90;99.90
12911;DHT22;6523;49.758;6.120;2024-03-23T09:10:57;8.00;99.90
12911;DHT22;6523;49.758;6.120;2024-03-23T09:13:23;8.20;99.90
12911;DHT22;6523;49.758;6.120;2024-03-23T09:15:50;8.30;99.90
12911;DHT22;6523;49.758;6.120;2024-03-23T09:18:16;8.40;99.90
12911;DHT22;6523;49.758;6.120;2024-03-23T09:20:42;8.20;99.90
12911;DHT22;6523;49.758;6.120;2024-03-23T09:23:08;8.20;99.90
12911;DHT22;6523;49.758;6.120;2024-03-23T09:25:37;8.40;99.90
12911;DHT22;6523;49.758;6.120;2024-03-23T09:28:04;8.70;99.90
12911;DHT22;6523;49.758;6.120;2024-03-23T09:30:32;8.90;99.90
12911;DHT22;6523;49.758;6.120;2024-03-23T09:32:58;8.50;99.90
12911;DHT22;6523;49.758;6.120;2024-03-23T09:35:24;8.70;99.90
12911;DHT22;6523;49.758;6.120;2024-03-23T09:37:50;8.80;99.90
12911;DHT22;6523;49.758;6.120;2024-03-23T09:40:15;8.60;99.90
12911;DHT22;6523;49.758;6.120;2024-03-23T09:42:42;8.80;99.90
12911;DHT22;6523;49.758;6.120;2024-03-23T09:45:17;9.20;99.90
12911;DHT22;6523;49.758;6.120;2024-03-23T09:47:45;9.50;99.90
12911;DHT22;6523;49.758;6.120;2024-03-23T09:50:13;9.40;99.90
12911;DHT22;6523;49.758;6.120;2024-03-23T09:52:39;9.20;99.90
12911;DHT22;6523;49.758;6.120;2024-03-23T09:55:06;9.50;99.90
12911;DHT22;6523;49.758;6.120;2024-03-23T09:57:31;9.10;99.90
12911;DHT22;6523;49.758;6.120;2024-03-23T09:59:57;8.70;99.90
12911;DHT22;6523;49.758;6.120;2024-03-23T10:02:24;8.60;99.90
12911;DHT22;6523;49.758;6.120;2024-03-23T10:04:49;8.70;99.90
12911;DHT22;6523;49.758;6.120;2024-03-23T10:07:19;8.20;99.90
12911;DHT22;6523;49.758;6.120;2024-03-23T10:09:45;7.80;99.90
12911;DHT22;6523;49.758;6.120;2024-03-23T10:12:16;6.80;99.90
12911;DHT22;6523;49.758;6.120;2024-03-23T10:14:43;5.80;99.90
12911;DHT22;6523;49.758;6.120;2024-03-23T10:19:41;4.70;99.90
12911;DHT22;6523;49.758;6.120;2024-03-23T10:22:09;4.60;99.90
12911;DHT22;6523;49.758;6.120;2024-03-23T10:24:35;4.40;99.90
12911;DHT22;6523;49.758;6.120;2024-03-23T10:27:00;4.60;99.90
12911;DHT22;6523;49.758;6.120;2024-03-23T10:29:26;4.70;99.90
12911;DHT22;6523;49.758;6.120;2024-03-23T10:31:53;4.80;99.90
12911;DHT22;6523;49.758;6.120;2024-03-23T10:34:26;5.90;99.90
12911;DHT22;6523;49.758;6.120;2024-03-23T10:36:56;6.30;99.90
12911;DHT22;6523;49.758;6.120;2024-03-23T10:39:23;6.30;99.90
12911;DHT22;6523;49.758;6.120;2024-03-23T10:41:53;6.70;99.90
12911;DHT22;6523;49.758;6.120;2024-03-23T10:44:21;7.20;99.90
12911;DHT22;6523;49.758;6.120;2024-03-23T10:46:50;7.30;99.90
12911;DHT22;6523;49.758;6.120;2024-03-23T10:49:17;6.30;99.90
12911;DHT22;6523;49.758;6.120;2024-03-23T10:51:43;6.70;99.90
12911;DHT22;6523;49.758;6.120;2024-03-23T10:54:09;7.20;99.90
12911;DHT22;6523;49.758;6.120;2024-03-23T10:56:40;6.90;99.90
12911;DHT22;6523;49.758;6.120;2024-03-23T10:59:07;6.70;99.90
12911;DHT22;6523;49.758;6.120;2024-03-23T11:01:33;6.70;99.90
12911;DHT22;6523;49.758;6.120;2024-03-23T11:03:59;7.60;99.90
12911;DHT22;6523;49.758;6.120;2024-03-23T11:06:38;8.70;99.90
12911;DHT22;6523;49.758;6.120;2024-03-23T11:09:14;8.90;99.90
12911;DHT22;6523;49.758;6.120;2024-03-23T11:11:50;8.00;99.90
12911;DHT22;6523;49.758;6.120;2024-03-23T11:14:22;7.80;99.90
12911;DHT22;6523;49.758;6.120;2024-03-23T11:17:08;7.60;99.90
12911;DHT22;6523;49.758;6.120;2024-03-23T11:19:35;8.60;99.90
12911;DHT22;6523;49.758;6.120;2024-03-23T11:22:04;10.30;99.90
12911;DHT22;6523;49.758;6.120;2024-03-23T11:24:31;9.20;99.90
12911;DHT22;6523;49.758;6.120;2024-03-23T11:26:56;9.00;99.90
12911;DHT22;6523;49.758;6.120;2024-03-23T11:29:26;8.70;99.90
12911;DHT22;6523;49.758;6.120;2024-03-23T11:31:53;8.40;99.90
12911;DHT22;6523;49.758;6.120;2024-03-23T11:34:22;8.50;99.90
12911;DHT22;6523;49.758;6.120;2024-03-23T11:36:48;8.40;99.90
12911;DHT22;6523;49.758;6.120;2024-03-23T11:39:19;8.10;99.90
12911;DHT22;6523;49.758;6.120;2024-03-23T11:41:50;8.50;99.90
12911;DHT22;6523;49.758;6.120;2024-03-23T11:46:42;8.80;99.90
12911;DHT22;6523;49.758;6.120;2024-03-23T11:49:29;7.80;99.90
12911;DHT22;6523;49.758;6.120;2024-03-23T11:51:56;8.00;99.90
12911;DHT22;6523;49.758;6.120;2024-03-23T11:54:26;7.80;99.90
12911;DHT22;6523;49.758;6.120;2024-03-23T11:56:59;7.40;99.90
12911;DHT22;6523;49.758;6.120;2024-03-23T12:02:00;6.20;99.90
12911;DHT22;6523;49.758;6.120;2024-03-23T12:04:29;5.90;99.90
12911;DHT22;6523;49.758;6.120;2024-03-23T12:07:15;6.20;99.90
12911;DHT22;6523;49.758;6.120;2024-03-23T12:09:42;6.90;99.90
12911;DHT22;6523;49.758;6.120;2024-03-23T12:14:34;6.60;99.90
12911;DHT22;6523;49.758;6.120;2024-03-23T12:17:10;6.70;99.90
12911;DHT22;6523;49.758;6.120;2024-03-23T12:19:36;7.40;99.90
12911;DHT22;6523;49.758;6.120;2024-03-23T12:22:03;8.10;99.90
12911;DHT22;6523;49.758;6.120;2024-03-23T12:24:29;8.20;99.90
12911;DHT22;6523;49.758;6.120;2024-03-23T12:26:55;8.70;99.90
12911;DHT22;6523;49.758;6.120;2024-03-23T12:29:28;9.00;99.90
12911;DHT22;6523;49.758;6.120;2024-03-23T12:31:53;9.20;99.90
12911;DHT22;6523;49.758;6.120;2024-03-23T12:34:19;9.30;99.90
12911;DHT22;6523;49.758;6.120;2024-03-23T12:36:45;10.10;99.90
12911;DHT22;6523;49.758;6.120;2024-03-23T12:39:10;10.00;99.90
12911;DHT22;6523;49.758;6.120;2024-03-23T12:41:36;9.90;99.90
12911;DHT22;6523;49.758;6.120;2024-03-23T12:44:01;9.80;99.90
12911;DHT22;6523;49.758;6.120;2024-03-23T12:46:27;9.50;99.90
12911;DHT22;6523;49.758;6.120;2024-03-23T12:48:53;9.40;99.90
12911;DHT22;6523;49.758;6.120;2024-03-23T12:51:18;9.00;99.90
12911;DHT22;6523;49.758;6.120;2024-03-23T12:53:44;8.90;99.90
12911;DHT22;6523;49.758;6.120;2024-03-23T12:56:13;8.40;99.90
12911;DHT22;6523;49.758;6.120;2024-03-23T12:58:38;8.00;99.90
12911;DHT22;6523;49.758;6.120;2024-03-23T13:01:04;7.70;99.90
12911;DHT22;6523;49.758;6.120;2024-03-23T13:03:35;7.50;99.90
12911;DHT22;6523;49.758;6.120;2024-03-23T13:06:00;7.60;99.90
12911;DHT22;6523;49.758;6.120;2024-03-23T13:08:26;7.20;99.90
12911;DHT22;6523;49.758;6.120;2024-03-23T13:10:54;7.10;99.90
12911;DHT22;6523;49.758;6.120;2024-03-23T13:13:20;7.20;99.90
12911;DHT22;6523;49.758;6.120;2024-03-23T13:15:50;7.10;99.90
12911;DHT22;6523;49.758;6.120;2024-03-23T13:18:16;6.90;99.90
12911;DHT22;6523;49.758;6.120;2024-03-23T13:20:41;6.80;99.90
12911;DHT22;6523;49.758;6.120;2024-03-23T13:23:07;7.70;99.90
12911;DHT22;6523;49.758;6.120;2024-03-23T13:25:33;8.90;99.90
12911;DHT22;6523;49.758;6.120;2024-03-23T13:27:59;9.10;99.90
12911;DHT22;6523;49.758;6.120;2024-03-23T13:30:24;8.60;99.90
12911;DHT22;6523;49.758;6.120;2024-03-23T13:32:50;8.30;99.90
12911;DHT22;6523;49.758;6.120;2024-03-23T13:35:16;7.40;99.90
12911;DHT22;6523;49.758;6.120;2024-03-23T13:37:41;7.10;99.90
12911;DHT22;6523;49.758;6.120;2024-03-23T13:40:08;6.90;99.90
12911;DHT22;6523;49.758;6.120;2024-03-23T13:42:33;7.00;99.90
12911;DHT22;6523;49.758;6.120;2024-03-23T13:44:59;7.10;99.90
12911;DHT22;6523;49.758;6.120;2024-03-23T13:47:24;6.70;99.90
12911;DHT22;6523;49.758;6.120;2024-03-23T13:49:50;6.40;99.90
12911;DHT22;6523;49.758;6.120;2024-03-23T13:52:16;5.60;99.90
12911;DHT22;6523;49.758;6.120;2024-03-23T13:54:42;5.30;99.90
12911;DHT22;6523;49.758;6.120;2024-03-23T13:57:11;5.10;99.90
12911;DHT22;6523;49.758;6.120;2024-03-23T13:59:37;5.30;99.90
12911;DHT22;6523;49.758;6.120;2024-03-23T14:02:03;5.20;99.90
12911;DHT22;6523;49.758;6.120;2024-03-23T14:04:29;5.20;99.90
12911;DHT22;6523;49.758;6.120;2024-03-23T14:06:54;5.10;99.90
12911;DHT22;6523;49.758;6.120;2024-03-23T14:09:20;5.00;99.90
12911;DHT22;6523;49.758;6.120;2024-03-23T14:11:51;5.00;99.90
12911;DHT22;6523;49.758;6.120;2024-03-23T14:14:17;5.10;99.90
12911;DHT22;6523;49.758;6.120;2024-03-23T14:16:45;5.40;99.90
12911;DHT22;6523;49.758;6.120;2024-03-23T14:19:11;6.40;99.90
12911;DHT22;6523;49.758;6.120;2024-03-23T14:21:37;7.40;99.90
12911;DHT22;6523;49.758;6.120;2024-03-23T14:24:04;7.50;99.90
12911;DHT22;6523;49.758;6.120;2024-03-23T14:26:29;7.80;99.90
12911;DHT22;6523;49.758;6.120;2024-03-23T14:28:55;7.70;99.90
12911;DHT22;6523;49.758;6.120;2024-03-23T14:31:20;7.60;99.90
12911;DHT22;6523;49.758;6.120;2024-03-23T14:33:47;7.20;99.90
12911;DHT22;6523;49.758;6.120;2024-03-23T14:36:13;7.00;99.90
12911;DHT22;6523;49.758;6.120;2024-03-23T14:38:39;7.20;99.90
12911;DHT22;6523;49.758;6.120;2024-03-23T14:41:05;8.10;99.90
12911;DHT22;6523;49.758;6.120;2024-03-23T14:43:30;7.90;99.90
12911;DHT22;6523;49.758;6.120;2024-03-23T14:46:25;7.60;99.90
12911;DHT22;6523;49.758;6.120;2024-03-23T14:48:51;7.50;99.90
12911;DHT22;6523;49.758;6.120;2024-03-23T14:51:16;7.40;99.90
12911;DHT22;6523;49.758;6.120;2024-03-23T14:53:45;6.80;99.90
12911;DHT22;6523;49.758;6.120;2024-03-23T14:56:11;6.50;99.90
12911;DHT22;6523;49.758;6.120;2024-03-23T14:58:38;6.60;99.90
12911;DHT22;6523;49.758;6.120;2024-03-23T15:01:08;6.50;99.90
12911;DHT22;6523;49.758;6.120;2024-03-23T15:03:37;6.60;99.90
12911;DHT22;6523;49.758;6.120;2024-03-23T15:06:04;6.60;99.90
12911;DHT22;6523;49.758;6.120;2024-03-23T15:08:30;6.60;99.90
12911;DHT22;6523;49.758;6.120;2024-03-23T15:11:00;6.50;99.90
12911;DHT22;6523;49.758;6.120;2024-03-23T15:13:26;6.50;99.90
12911;DHT22;6523;49.758;6.120;2024-03-23T15:15:51;6.60;99.90
12911;DHT22;6523;49.758;6.120;2024-03-23T15:18:17;6.70;99.90
12911;DHT22;6523;49.758;6.120;2024-03-23T15:20:58;6.90;99.90
12911;DHT22;6523;49.758;6.120;2024-03-23T15:23:28;7.40;99.90
12911;DHT22;6523;49.758;6.120;2024-03-23T15:25:57;7.10;99.90
12911;DHT22;6523;49.758;6.120;2024-03-23T15:28:23;6.90;99.90
12911;DHT22;6523;49.758;6.120;2024-03-23T15:30:50;6.90;99.90
12911;DHT22;6523;49.758;6.120;2024-03-23T15:33:15;6.80;99.90
12911;DHT22;6523;49.758;6.120;2024-03-23T15:35:41;6.30;99.90
12911;DHT22;6523;49.758;6.120;2024-03-23T15:38:06;6.20;99.90
12911;DHT22;6523;49.758;6.120;2024-03-23T15:40:32;6.10;99.90
12911;DHT22;6523;49.758;6.120;2024-03-23T15:42:58;6.10;99.90
12911;DHT22;6523;49.758;6.120;2024-03-23T15:45:23;6.00;99.90
12911;DHT22;6523;49.758;6.120;2024-03-23T15:47:49;6.10;99.90
12911;DHT22;6523;49.758;6.120;2024-03-23T15:50:15;6.10;99.90
12911;DHT22;6523;49.758;6.120;2024-03-23T15:52:40;6.00;99.90
12911;DHT22;6523;49.758;6.120;2024-03-23T15:55:06;6.00;99.90
12911;DHT22;6523;49.758;6.120;2024-03-23T15:57:35;5.90;99.90
12911;DHT22;6523;49.758;6.120;2024-03-23T16:00:02;5.80;99.90
12911;DHT22;6523;49.758;6.120;2024-03-23T16:02:28;5.90;99.90
12911;DHT22;6523;49.758;6.120;2024-03-23T16:04:54;6.10;99.90
12911;DHT22;6523;49.758;6.120;2024-03-23T16:07:21;6.30;99.90
12911;DHT22;6523;49.758;6.120;2024-03-23T16:09:46;6.30;99.90
12911;DHT22;6523;49.758;6.120;2024-03-23T16:12:12;6.90;99.90
12911;DHT22;6523;49.758;6.120;2024-03-23T16:14:38;6.80;99.90
12911;DHT22;6523;49.758;6.120;2024-03-23T16:17:03;6.60;99.90
12911;DHT22;6523;49.758;6.120;2024-03-23T16:19:29;6.30;99.90
12911;DHT22;6523;49.758;6.120;2024-03-23T16:21:55;6.10;99.90
12911;DHT22;6523;49.758;6.120;2024-03-23T16:24:21;6.60;99.90
12911;DHT22;6523;49.758;6.120;2024-03-23T16:26:47;6.80;99.90
12911;DHT22;6523;49.758;6.120;2024-03-23T16:29:12;6.80;99.90
12911;DHT22;6523;49.758;6.120;2024-03-23T16:31:38;6.80;99.90
12911;DHT22;6523;49.758;6.120;2024-03-23T16:34:04;7.00;99.90
12911;DHT22;6523;49.758;6.120;2024-03-23T16:36:30;6.80;99.90
12911;DHT22;6523;49.758;6.120;2024-03-23T16:38:55;6.70;99.90
12911;DHT22;6523;49.758;6.120;2024-03-23T16:41:21;6.80;99.90
12911;DHT22;6523;49.758;6.120;2024-03-23T16:43:47;6.70;99.90
12911;DHT22;6523;49.758;6.120;2024-03-23T16:46:13;6.60;99.90
12911;DHT22;6523;49.758;6.120;2024-03-23T16:48:43;6.50;99.90
12911;DHT22;6523;49.758;6.120;2024-03-23T16:51:10;6.20;99.90
12911;DHT22;6523;49.758;6.120;2024-03-23T16:53:36;6.00;99.90
12911;DHT22;6523;49.758;6.120;2024-03-23T16:56:03;6.00;99.90
12911;DHT22;6523;49.758;6.120;2024-03-23T16:58:33;5.90;99.90
12911;DHT22;6523;49.758;6.120;2024-03-23T17:01:06;5.80;99.90
12911;DHT22;6523;49.758;6.120;2024-03-23T17:03:37;5.80;99.90